sensor_id;sensor_type;location;lat;lon;timestamp;temperature;humidity
30385;DHT22;17181;51.002;4.096;2023-02-26T09:01:10;3.60;95.90
30385;DHT22;17181;51.002;4.096;2023-02-26T09:03:36;3.60;95.80
30385;DHT22;17181;51.002;4.096;2023-02-26T09:06:02;3.70;95.80
30385;DHT22;17181;51.002;4.096;2023-02-26T09:08:30;3.70;95.60
30385;DHT22;17181;51.002;4.096;2023-02-26T09:11:00;3.80;95.80
30385;DHT22;17181;51.002;4.096;2023-02-26T09:13:26;3.80;95.80
30385;DHT22;17181;51.002;4.096;2023-02-26T09:15:52;3.90;95.70
30385;DHT22;17181;51.002;4.096;2023-02-26T09:18:18;3.90;95.20
30385;DHT22;17181;51.002;4.096;2023-02-26T09:20:44;4.00;94.80
30385;DHT22;17181;51.002;4.096;2023-02-26T09:23:10;4.00;94.70
30385;DHT22;17181;51.002;4.096;2023-02-26T09:25:39;4.00;94.60
30385;DHT22;17181;51.002;4.096;2023-02-26T09:28:06;4.10;94.10
30385;DHT22;17181;51.002;4.096;2023-02-26T09:30:37;4.20;94.30
30385;DHT22;17181;51.002;4.096;2023-02-26T09:33:04;4.20;94.60
30385;DHT22;17181;51.002;4.096;2023-02-26T09:35:30;4.30;94.10
30385;DHT22;17181;51.002;4.096;2023-02-26T09:37:56;4.30;93.80
30385;DHT22;17181;51.002;4.096;2023-02-26T09:40:50;4.30;93.40
30385;DHT22;17181;51.002;4.096;2023-02-26T09:46:51;4.40;93.10
30385;DHT22;17181;51.002;4.096;2023-02-26T09:52:32;4.40;92.30
30385;DHT22;17181;51.002;4.096;2023-02-26T09:55:25;4.40;92.10
30385;DHT22;17181;51.002;4.096;2023-02-26T09:57:57;4.50;92.30
30385;DHT22;17181;51.002;4.096;2023-02-26T10:00:35;4.50;91.60
30385;DHT22;17181;51.002;4.096;2023-02-26T10:03:27;4.50;91.40
30385;DHT22;17181;51.002;4.096;2023-02-26T10:06:14;4.50;91.20
30385;DHT22;17181;51.002;4.096;2023-02-26T10:11:29;4.60;91.50
30385;DHT22;17181;51.002;4.096;2023-02-26T10:14:04;4.70;91.60
30385;DHT22;17181;51.002;4.096;2023-02-26T10:16:36;4.70;91.50
30385;DHT22;17181;51.002;4.096;2023-02-26T10:19:10;4.80;91.10
30385;DHT22;17181;51.002;4.096;2023-02-26T10:21:47;4.80;90.90
30385;DHT22;17181;51.002;4.096;2023-02-26T10:24:38;4.80;90.90
30385;DHT22;17181;51.002;4.096;2023-02-26T10:27:10;4.80;91.00
30385;DHT22;17181;51.002;4.096;2023-02-26T10:29:50;4.90;91.10
30385;DHT22;17181;51.002;4.096;2023-02-26T10:33:05;4.90;91.10
30385;DHT22;17181;51.002;4.096;2023-02-26T10:35:16;4.90;90.80
30385;DHT22;17181;51.002;4.096;2023-02-26T10:37:55;4.90;90.60
30385;DHT22;17181;51.002;4.096;2023-02-26T10:40:55;5.00;90.80
30385;DHT22;17181;51.002;4.096;2023-02-26T10:43:41;5.00;90.60
30385;DHT22;17181;51.002;4.096;2023-02-26T10:46:17;5.10;90.30
30385;DHT22;17181;51.002;4.096;2023-02-26T10:51:37;5.10;90.40
30385;DHT22;17181;51.002;4.096;2023-02-26T10:54:32;5.10;90.30
30385;DHT22;17181;51.002;4.096;2023-02-26T10:56:59;5.10;90.20
30385;DHT22;17181;51.002;4.096;2023-02-26T10:59:26;5.10;90.10
30385;DHT22;17181;51.002;4.096;2023-02-26T11:01:52;5.10;89.90
30385;DHT22;17181;51.002;4.096;2023-02-26T11:04:21;5.10;89.70
30385;DHT22;17181;51.002;4.096;2023-02-26T11:07:00;5.10;90.00
30385;DHT22;17181;51.002;4.096;2023-02-26T11:09:41;5.20;89.40
30385;DHT22;17181;51.002;4.096;2023-02-26T11:14:37;5.20;88.50
30385;DHT22;17181;51.002;4.096;2023-02-26T11:17:09;5.20;88.70
30385;DHT22;17181;51.002;4.096;2023-02-26T11:19:39;5.20;88.90
30385;DHT22;17181;51.002;4.096;2023-02-26T11:22:07;5.20;88.90
30385;DHT22;17181;51.002;4.096;2023-02-26T11:24:46;5.20;88.60
30385;DHT22;17181;51.002;4.096;2023-02-26T11:27:23;5.30;88.70
30385;DHT22;17181;51.002;4.096;2023-02-26T11:29:57;5.30;88.10
30385;DHT22;17181;51.002;4.096;2023-02-26T11:32:32;5.40;88.40
30385;DHT22;17181;51.002;4.096;2023-02-26T11:34:58;5.50;87.10
30385;DHT22;17181;51.002;4.096;2023-02-26T11:37:30;5.60;87.00
30385;DHT22;17181;51.002;4.096;2023-02-26T11:40:04;5.70;86.60
30385;DHT22;17181;51.002;4.096;2023-02-26T11:42:38;5.80;85.90
30385;DHT22;17181;51.002;4.096;2023-02-26T11:45:11;5.80;85.80
30385;DHT22;17181;51.002;4.096;2023-02-26T11:47:38;5.80;85.10
30385;DHT22;17181;51.002;4.096;2023-02-26T11:50:15;5.80;84.20
30385;DHT22;17181;51.002;4.096;2023-02-26T11:52:44;5.80;84.00
30385;DHT22;17181;51.002;4.096;2023-02-26T11:55:20;5.90;83.50
30385;DHT22;17181;51.002;4.096;2023-02-26T11:57:52;5.90;83.30
30385;DHT22;17181;51.002;4.096;2023-02-26T12:00:34;6.00;83.00
30385;DHT22;17181;51.002;4.096;2023-02-26T12:03:06;6.00;82.90
30385;DHT22;17181;51.002;4.096;2023-02-26T12:05:34;6.10;83.60
30385;DHT22;17181;51.002;4.096;2023-02-26T12:08:06;6.20;83.70
30385;DHT22;17181;51.002;4.096;2023-02-26T12:10:49;6.40;84.10
30385;DHT22;17181;51.002;4.096;2023-02-26T12:13:30;6.50;84.00
30385;DHT22;17181;51.002;4.096;2023-02-26T12:30:02;6.50;82.20
30385;DHT22;17181;51.002;4.096;2023-02-26T12:37:58;6.50;80.70
30385;DHT22;17181;51.002;4.096;2023-02-26T12:40:58;6.50;79.70
30385;DHT22;17181;51.002;4.096;2023-02-26T12:43:44;6.50;77.80
30385;DHT22;17181;51.002;4.096;2023-02-26T13:20:26;7.20;75.30
30385;DHT22;17181;51.002;4.096;2023-02-26T13:23:05;7.30;75.60
30385;DHT22;17181;51.002;4.096;2023-02-26T13:25:40;7.40;76.40
30385;DHT22;17181;51.002;4.096;2023-02-26T13:31:22;7.60;75.70
30385;DHT22;17181;51.002;4.096;2023-02-26T13:33:51;7.60;75.20
30385;DHT22;17181;51.002;4.096;2023-02-26T13:36:21;7.50;73.80
30385;DHT22;17181;51.002;4.096;2023-02-26T13:39:12;7.40;73.20
30385;DHT22;17181;51.002;4.096;2023-02-26T13:41:58;7.40;71.80
30385;DHT22;17181;51.002;4.096;2023-02-26T13:47:28;7.30;71.70
30385;DHT22;17181;51.002;4.096;2023-02-26T13:53:58;7.40;72.80
30385;DHT22;17181;51.002;4.096;2023-02-26T13:59:01;7.60;72.90
30385;DHT22;17181;51.002;4.096;2023-02-26T14:01:32;7.70;72.30
30385;DHT22;17181;51.002;4.096;2023-02-26T14:04:23;7.80;71.90
30385;DHT22;17181;51.002;4.096;2023-02-26T14:07:13;7.90;71.10
30385;DHT22;17181;51.002;4.096;2023-02-26T14:09:55;8.00;71.50
30385;DHT22;17181;51.002;4.096;2023-02-26T14:12:24;8.20;72.50
30385;DHT22;17181;51.002;4.096;2023-02-26T14:22:41;11.10;69.30
30385;DHT22;17181;51.002;4.096;2023-02-26T14:31:45;12.50;67.70
30385;DHT22;17181;51.002;4.096;2023-02-26T14:36:58;13.20;63.10
30385;DHT22;17181;51.002;4.096;2023-02-26T14:39:46;13.30;63.10
30385;DHT22;17181;51.002;4.096;2023-02-26T14:48:10;13.60;59.00
30385;DHT22;17181;51.002;4.096;2023-02-26T14:53:44;13.20;57.20
30385;DHT22;17181;51.002;4.096;2023-02-26T14:56:38;13.20;57.40
30385;DHT22;17181;51.002;4.096;2023-02-26T15:02:30;13.50;57.20
30385;DHT22;17181;51.002;4.096;2023-02-26T15:05:21;13.70;55.50
30385;DHT22;17181;51.002;4.096;2023-02-26T15:14:30;13.50;54.50
30385;DHT22;17181;51.002;4.096;2023-02-26T15:25:43;13.80;54.70
30385;DHT22;17181;51.002;4.096;2023-02-26T15:28:24;13.90;54.00
30385;DHT22;17181;51.002;4.096;2023-02-26T15:30:51;13.90;53.70
30385;DHT22;17181;51.002;4.096;2023-02-26T15:33:19;13.70;53.40
30385;DHT22;17181;51.002;4.096;2023-02-26T15:35:47;13.70;53.60
30385;DHT22;17181;51.002;4.096;2023-02-26T15:38:14;13.80;53.80
30385;DHT22;17181;51.002;4.096;2023-02-26T15:40:40;14.00;53.90
30385;DHT22;17181;51.002;4.096;2023-02-26T15:43:08;14.20;54.30
30385;DHT22;17181;51.002;4.096;2023-02-26T15:45:39;14.60;54.60
30385;DHT22;17181;51.002;4.096;2023-02-26T15:48:16;14.90;54.10
30385;DHT22;17181;51.002;4.096;2023-02-26T15:50:44;15.10;53.60
30385;DHT22;17181;51.002;4.096;2023-02-26T15:53:23;15.20;52.60
30385;DHT22;17181;51.002;4.096;2023-02-26T15:55:53;15.20;52.50
30385;DHT22;17181;51.002;4.096;2023-02-26T15:58:34;15.20;52.70
30385;DHT22;17181;51.002;4.096;2023-02-26T16:01:02;15.30;51.80
30385;DHT22;17181;51.002;4.096;2023-02-26T16:03:34;15.10;51.40
30385;DHT22;17181;51.002;4.096;2023-02-26T16:06:01;15.00;51.30
30385;DHT22;17181;51.002;4.096;2023-02-26T16:08:27;14.80;51.20
30385;DHT22;17181;51.002;4.096;2023-02-26T16:10:56;14.60;51.50
30385;DHT22;17181;51.002;4.096;2023-02-26T16:13:31;14.50;51.00
30385;DHT22;17181;51.002;4.096;2023-02-26T16:16:33;14.40;51.00
30385;DHT22;17181;51.002;4.096;2023-02-26T16:18:53;14.30;51.00
30385;DHT22;17181;51.002;4.096;2023-02-26T16:21:33;14.20;51.20
30385;DHT22;17181;51.002;4.096;2023-02-26T16:24:00;14.20;51.70
30385;DHT22;17181;51.002;4.096;2023-02-26T16:26:32;14.00;51.50
30385;DHT22;17181;51.002;4.096;2023-02-26T16:29:09;13.80;51.50
30385;DHT22;17181;51.002;4.096;2023-02-26T16:31:36;13.50;50.70
30385;DHT22;17181;51.002;4.096;2023-02-26T16:34:06;13.00;50.90
30385;DHT22;17181;51.002;4.096;2023-02-26T16:36:39;12.40;50.70
30385;DHT22;17181;51.002;4.096;2023-02-26T16:41:34;11.40;51.70
30385;DHT22;17181;51.002;4.096;2023-02-26T16:44:03;11.00;52.00
30385;DHT22;17181;51.002;4.096;2023-02-26T16:46:36;10.60;52.50
30385;DHT22;17181;51.002;4.096;2023-02-26T16:49:17;10.20;52.90
30385;DHT22;17181;51.002;4.096;2023-02-26T16:51:45;9.90;53.40
30385;DHT22;17181;51.002;4.096;2023-02-26T16:54:22;9.50;53.70
30385;DHT22;17181;51.002;4.096;2023-02-26T16:57:18;9.20;54.20
30385;DHT22;17181;51.002;4.096;2023-02-26T16:59:54;8.90;54.80
30385;DHT22;17181;51.002;4.096;2023-02-26T17:02:28;8.70;55.20
30385;DHT22;17181;51.002;4.096;2023-02-26T17:04:58;8.50;55.50
30385;DHT22;17181;51.002;4.096;2023-02-26T17:07:28;8.30;56.50
30385;DHT22;17181;51.002;4.096;2023-02-26T17:10:06;8.10;57.00
30385;DHT22;17181;51.002;4.096;2023-02-26T17:12:45;7.90;57.80
30385;DHT22;17181;51.002;4.096;2023-02-26T17:15:19;7.70;58.40
30385;DHT22;17181;51.002;4.096;2023-02-26T17:17:46;7.60;58.60
30385;DHT22;17181;51.002;4.096;2023-02-26T17:20:13;7.40;59.30
30385;DHT22;17181;51.002;4.096;2023-02-26T17:22:42;7.30;59.30
30385;DHT22;17181;51.002;4.096;2023-02-26T17:25:13;7.20;59.80
30385;DHT22;17181;51.002;4.096;2023-02-26T17:27:40;7.20;60.40
30385;DHT22;17181;51.002;4.096;2023-02-26T17:30:07;7.00;60.60
30385;DHT22;17181;51.002;4.096;2023-02-26T17:32:34;7.00;61.00
30385;DHT22;17181;51.002;4.096;2023-02-26T17:35:00;6.90;61.50
30385;DHT22;17181;51.002;4.096;2023-02-26T17:37:32;6.80;61.50
30385;DHT22;17181;51.002;4.096;2023-02-26T17:39:58;6.80;62.20
30385;DHT22;17181;51.002;4.096;2023-02-26T17:42:24;6.70;62.30
30385;DHT22;17181;51.002;4.096;2023-02-26T17:44:51;6.60;62.80
30385;DHT22;17181;51.002;4.096;2023-02-26T17:47:22;6.60;62.80
30385;DHT22;17181;51.002;4.096;2023-02-26T17:49:49;6.50;63.50
30385;DHT22;17181;51.002;4.096;2023-02-26T17:52:15;6.50;63.80
30385;DHT22;17181;51.002;4.096;2023-02-26T17:54:41;6.40;64.20
30385;DHT22;17181;51.002;4.096;2023-02-26T17:57:10;6.40;64.80
30385;DHT22;17181;51.002;4.096;2023-02-26T17:59:40;6.30;65.80
30385;DHT22;17181;51.002;4.096;2023-02-26T18:02:23;6.20;65.40
30385;DHT22;17181;51.002;4.096;2023-02-26T18:04:51;6.20;66.10
30385;DHT22;17181;51.002;4.096;2023-02-26T18:07:18;6.20;66.20
30385;DHT22;17181;51.002;4.096;2023-02-26T18:09:46;6.20;66.70
30385;DHT22;17181;51.002;4.096;2023-02-26T18:12:20;6.10;66.90
30385;DHT22;17181;51.002;4.096;2023-02-26T18:14:46;6.10;67.00
30385;DHT22;17181;51.002;4.096;2023-02-26T18:17:24;6.00;67.30
30385;DHT22;17181;51.002;4.096;2023-02-26T18:19:50;6.00;67.50
30385;DHT22;17181;51.002;4.096;2023-02-26T18:22:18;5.90;67.70
30385;DHT22;17181;51.002;4.096;2023-02-26T18:24:44;5.90;67.90
30385;DHT22;17181;51.002;4.096;2023-02-26T18:27:15;5.90;68.10
30385;DHT22;17181;51.002;4.096;2023-02-26T18:29:41;5.90;68.30
30385;DHT22;17181;51.002;4.096;2023-02-26T18:32:26;5.80;68.30
30385;DHT22;17181;51.002;4.096;2023-02-26T18:34:52;5.80;68.60
30385;DHT22;17181;51.002;4.096;2023-02-26T18:37:24;5.80;68.80
30385;DHT22;17181;51.002;4.096;2023-02-26T18:39:51;5.80;69.00
30385;DHT22;17181;51.002;4.096;2023-02-26T18:42:25;5.70;69.00
30385;DHT22;17181;51.002;4.096;2023-02-26T18:44:52;5.80;69.40
30385;DHT22;17181;51.002;4.096;2023-02-26T18:47:19;5.70;69.50
30385;DHT22;17181;51.002;4.096;2023-02-26T18:49:46;5.60;69.50
30385;DHT22;17181;51.002;4.096;2023-02-26T18:52:12;5.60;69.80
30385;DHT22;17181;51.002;4.096;2023-02-26T18:54:38;5.50;70.20
30385;DHT22;17181;51.002;4.096;2023-02-26T18:57:04;5.50;70.50
30385;DHT22;17181;51.002;4.096;2023-02-26T18:59:31;5.50;70.80
30385;DHT22;17181;51.002;4.096;2023-02-26T19:01:59;5.50;70.90
30385;DHT22;17181;51.002;4.096;2023-02-26T19:04:25;5.40;71.10
30385;DHT22;17181;51.002;4.096;2023-02-26T19:06:51;5.30;71.60
30385;DHT22;17181;51.002;4.096;2023-02-26T19:09:17;5.30;72.00
30385;DHT22;17181;51.002;4.096;2023-02-26T19:11:43;5.30;72.50
30385;DHT22;17181;51.002;4.096;2023-02-26T19:14:12;5.30;73.20
30385;DHT22;17181;51.002;4.096;2023-02-26T19:16:37;5.20;73.30
30385;DHT22;17181;51.002;4.096;2023-02-26T19:19:05;5.20;74.00
30385;DHT22;17181;51.002;4.096;2023-02-26T19:21:32;5.30;74.40
30385;DHT22;17181;51.002;4.096;2023-02-26T19:24:01;5.20;75.10
30385;DHT22;17181;51.002;4.096;2023-02-26T19:26:30;5.20;75.70
30385;DHT22;17181;51.002;4.096;2023-02-26T19:28:56;5.20;76.20
30385;DHT22;17181;51.002;4.096;2023-02-26T19:31:22;5.20;77.00
30385;DHT22;17181;51.002;4.096;2023-02-26T19:33:48;5.20;77.30
30385;DHT22;17181;51.002;4.096;2023-02-26T19:36:14;5.20;77.80
30385;DHT22;17181;51.002;4.096;2023-02-26T19:38:41;5.20;78.30
30385;DHT22;17181;51.002;4.096;2023-02-26T19:41:13;5.20;78.70
30385;DHT22;17181;51.002;4.096;2023-02-26T19:43:38;5.20;79.00
30385;DHT22;17181;51.002;4.096;2023-02-26T19:46:04;5.10;79.30
30385;DHT22;17181;51.002;4.096;2023-02-26T19:48:30;5.20;79.60
30385;DHT22;17181;51.002;4.096;2023-02-26T19:50:56;5.10;79.90
30385;DHT22;17181;51.002;4.096;2023-02-26T19:53:23;5.10;80.00
30385;DHT22;17181;51.002;4.096;2023-02-26T19:55:49;5.20;80.30
30385;DHT22;17181;51.002;4.096;2023-02-26T19:58:15;5.10;80.40
30385;DHT22;17181;51.002;4.096;2023-02-26T20:00:44;5.10;80.60
30385;DHT22;17181;51.002;4.096;2023-02-26T20:03:10;5.10;80.90
30385;DHT22;17181;51.002;4.096;2023-02-26T20:05:36;5.10;81.10
30385;DHT22;17181;51.002;4.096;2023-02-26T20:08:02;5.00;81.50
30385;DHT22;17181;51.002;4.096;2023-02-26T20:10:28;5.00;81.60
30385;DHT22;17181;51.002;4.096;2023-02-26T20:12:56;5.00;81.90
30385;DHT22;17181;51.002;4.096;2023-02-26T20:15:23;5.00;82.10
30385;DHT22;17181;51.002;4.096;2023-02-26T20:17:49;5.00;82.50
30385;DHT22;17181;51.002;4.096;2023-02-26T20:20:15;5.00;82.60
30385;DHT22;17181;51.002;4.096;2023-02-26T20:22:42;5.00;82.50
30385;DHT22;17181;51.002;4.096;2023-02-26T20:25:09;5.00;82.80
30385;DHT22;17181;51.002;4.096;2023-02-26T20:27:35;5.00;83.00
30385;DHT22;17181;51.002;4.096;2023-02-26T20:30:03;5.00;83.00
30385;DHT22;17181;51.002;4.096;2023-02-26T20:32:29;5.00;83.00
30385;DHT22;17181;51.002;4.096;2023-02-26T20:34:55;4.90;83.10
30385;DHT22;17181;51.002;4.096;2023-02-26T20:37:20;5.00;83.40
30385;DHT22;17181;51.002;4.096;2023-02-26T20:39:48;4.90;83.60
30385;DHT22;17181;51.002;4.096;2023-02-26T20:42:14;5.00;83.70
30385;DHT22;17181;51.002;4.096;2023-02-26T20:44:41;4.90;83.60
30385;DHT22;17181;51.002;4.096;2023-02-26T20:47:07;4.90;83.80
30385;DHT22;17181;51.002;4.096;2023-02-26T20:49:33;4.90;83.90
30385;DHT22;17181;51.002;4.096;2023-02-26T20:51:59;4.90;83.90
30385;DHT22;17181;51.002;4.096;2023-02-26T20:54:26;4.90;84.00
30385;DHT22;17181;51.002;4.096;2023-02-26T20:56:52;4.90;84.10
30385;DHT22;17181;51.002;4.096;2023-02-26T20:59:18;4.80;84.20
30385;DHT22;17181;51.002;4.096;2023-02-26T21:01:46;4.80;84.30
30385;DHT22;17181;51.002;4.096;2023-02-26T21:04:12;4.90;84.30
30385;DHT22;17181;51.002;4.096;2023-02-26T21:06:38;4.80;84.30
30385;DHT22;17181;51.002;4.096;2023-02-26T21:09:05;4.80;84.50
30385;DHT22;17181;51.002;4.096;2023-02-26T21:11:33;4.80;84.50
30385;DHT22;17181;51.002;4.096;2023-02-26T21:14:00;4.70;84.60
30385;DHT22;17181;51.002;4.096;2023-02-26T21:16:27;4.70;84.80
30385;DHT22;17181;51.002;4.096;2023-02-26T21:18:54;4.70;84.80
30385;DHT22;17181;51.002;4.096;2023-02-26T21:21:21;4.70;84.90
30385;DHT22;17181;51.002;4.096;2023-02-26T21:23:47;4.70;85.00
30385;DHT22;17181;51.002;4.096;2023-02-26T21:26:14;4.60;84.90
30385;DHT22;17181;51.002;4.096;2023-02-26T21:28:40;4.60;85.00
30385;DHT22;17181;51.002;4.096;2023-02-26T21:31:06;4.60;84.90
30385;DHT22;17181;51.002;4.096;2023-02-26T21:33:32;4.60;85.10
30385;DHT22;17181;51.002;4.096;2023-02-26T21:35:57;4.60;85.20
30385;DHT22;17181;51.002;4.096;2023-02-26T21:38:23;4.50;85.10
30385;DHT22;17181;51.002;4.096;2023-02-26T21:40:49;4.50;85.20
30385;DHT22;17181;51.002;4.096;2023-02-26T21:43:15;4.50;85.30
30385;DHT22;17181;51.002;4.096;2023-02-26T21:45:41;4.40;85.50
30385;DHT22;17181;51.002;4.096;2023-02-26T21:48:08;4.40;85.50
30385;DHT22;17181;51.002;4.096;2023-02-26T21:50:34;4.40;85.70
30385;DHT22;17181;51.002;4.096;2023-02-26T21:53:00;4.40;85.80
30385;DHT22;17181;51.002;4.096;2023-02-26T21:55:26;4.40;85.80
30385;DHT22;17181;51.002;4.096;2023-02-26T21:57:52;4.40;85.90
30385;DHT22;17181;51.002;4.096;2023-02-26T22:00:18;4.30;85.80
30385;DHT22;17181;51.002;4.096;2023-02-26T22:02:44;4.30;85.90
30385;DHT22;17181;51.002;4.096;2023-02-26T22:05:10;4.30;86.10
30385;DHT22;17181;51.002;4.096;2023-02-26T22:07:37;4.30;86.10
30385;DHT22;17181;51.002;4.096;2023-02-26T22:10:08;4.30;86.10
30385;DHT22;17181;51.002;4.096;2023-02-26T22:12:34;4.20;86.10
30385;DHT22;17181;51.002;4.096;2023-02-26T22:14:59;4.30;86.30
30385;DHT22;17181;51.002;4.096;2023-02-26T22:17:25;4.20;86.40
30385;DHT22;17181;51.002;4.096;2023-02-26T22:19:51;4.20;86.50
30385;DHT22;17181;51.002;4.096;2023-02-26T22:22:17;4.20;86.50
30385;DHT22;17181;51.002;4.096;2023-02-26T22:24:43;4.10;86.40
30385;DHT22;17181;51.002;4.096;2023-02-26T22:27:10;4.10;86.80
30385;DHT22;17181;51.002;4.096;2023-02-26T22:29:36;4.10;86.50
30385;DHT22;17181;51.002;4.096;2023-02-26T22:32:03;4.10;86.70
30385;DHT22;17181;51.002;4.096;2023-02-26T22:34:29;4.10;86.80
30385;DHT22;17181;51.002;4.096;2023-02-26T22:36:59;4.00;86.70
30385;DHT22;17181;51.002;4.096;2023-02-26T22:39:26;4.00;86.90
30385;DHT22;17181;51.002;4.096;2023-02-26T22:41:52;4.00;87.00
30385;DHT22;17181;51.002;4.096;2023-02-26T22:44:18;4.00;87.30
30385;DHT22;17181;51.002;4.096;2023-02-26T22:46:44;4.00;87.20
30385;DHT22;17181;51.002;4.096;2023-02-26T22:49:12;4.00;87.20
30385;DHT22;17181;51.002;4.096;2023-02-26T22:51:38;4.00;87.20
30385;DHT22;17181;51.002;4.096;2023-02-26T22:54:04;3.90;87.40
30385;DHT22;17181;51.002;4.096;2023-02-26T22:56:30;3.90;87.50
30385;DHT22;17181;51.002;4.096;2023-02-26T22:58:56;3.90;87.60
30385;DHT22;17181;51.002;4.096;2023-02-26T23:01:22;3.90;87.70
30385;DHT22;17181;51.002;4.096;2023-02-26T23:03:48;3.90;87.60
30385;DHT22;17181;51.002;4.096;2023-02-26T23:06:14;3.90;87.70
30385;DHT22;17181;51.002;4.096;2023-02-26T23:08:40;3.80;87.70
30385;DHT22;17181;51.002;4.096;2023-02-26T23:11:06;3.80;87.90
30385;DHT22;17181;51.002;4.096;2023-02-26T23:13:33;3.80;87.80
30385;DHT22;17181;51.002;4.096;2023-02-26T23:16:01;3.90;88.10
30385;DHT22;17181;51.002;4.096;2023-02-26T23:18:28;3.80;88.30
30385;DHT22;17181;51.002;4.096;2023-02-26T23:20:54;3.90;88.30
30385;DHT22;17181;51.002;4.096;2023-02-26T23:23:20;3.80;88.10
30385;DHT22;17181;51.002;4.096;2023-02-26T23:25:47;3.80;88.20
30385;DHT22;17181;51.002;4.096;2023-02-26T23:28:13;3.80;88.40
30385;DHT22;17181;51.002;4.096;2023-02-26T23:30:39;3.80;88.50
30385;DHT22;17181;51.002;4.096;2023-02-26T23:33:05;3.80;89.30
30385;DHT22;17181;51.002;4.096;2023-02-26T23:35:32;3.80;88.70
30385;DHT22;17181;51.002;4.096;2023-02-26T23:37:59;3.70;88.70
30385;DHT22;17181;51.002;4.096;2023-02-26T23:40:25;3.70;88.60
30385;DHT22;17181;51.002;4.096;2023-02-26T23:42:51;3.70;88.60
30385;DHT22;17181;51.002;4.096;2023-02-26T23:45:17;3.70;88.50
30385;DHT22;17181;51.002;4.096;2023-02-26T23:47:43;3.70;88.70
30385;DHT22;17181;51.002;4.096;2023-02-26T23:50:10;3.70;88.90
30385;DHT22;17181;51.002;4.096;2023-02-26T23:52:36;3.70;88.90
30385;DHT22;17181;51.002;4.096;2023-02-26T23:55:05;3.70;89.00
30385;DHT22;17181;51.002;4.096;2023-02-26T23:57:31;3.70;89.10
30385;DHT22;17181;51.002;4.096;2023-02-26T23:59:57;3.60;89.60
